sensor_id;sensor_type;location;lat;lon;timestamp;P1;durP1;ratioP1;P2;durP2;ratioP2
35324;SDS011;35135;47.510;19.036;2023-06-01T00:00:58;7.35;;;4.82;;
35324;SDS011;35135;47.510;19.036;2023-06-01T00:03:26;5.57;;;4.55;;
35324;SDS011;35135;47.510;19.036;2023-06-01T00:05:54;4.68;;;3.97;;
35324;SDS011;35135;47.510;19.036;2023-06-01T00:08:21;5.95;;;4.68;;
35324;SDS011;35135;47.510;19.036;2023-06-01T00:10:48;6.65;;;4.50;;
35324;SDS011;35135;47.510;19.036;2023-06-01T00:13:14;7.18;;;4.50;;
35324;SDS011;35135;47.510;19.036;2023-06-01T00:15:40;5.05;;;3.85;;
35324;SDS011;35135;47.510;19.036;2023-06-01T00:18:05;5.70;;;4.32;;
35324;SDS011;35135;47.510;19.036;2023-06-01T00:20:33;6.10;;;4.10;;
35324;SDS011;35135;47.510;19.036;2023-06-01T00:22:59;6.80;;;4.40;;
35324;SDS011;35135;47.510;19.036;2023-06-01T00:25:25;6.18;;;4.20;;
35324;SDS011;35135;47.510;19.036;2023-06-01T00:27:51;6.68;;;4.68;;
35324;SDS011;35135;47.510;19.036;2023-06-01T00:30:17;5.53;;;4.32;;
35324;SDS011;35135;47.510;19.036;2023-06-01T00:32:42;5.85;;;4.65;;
35324;SDS011;35135;47.510;19.036;2023-06-01T00:35:08;7.18;;;4.53;;
35324;SDS011;35135;47.510;19.036;2023-06-01T00:37:34;6.07;;;4.57;;
35324;SDS011;35135;47.510;19.036;2023-06-01T00:40:00;7.70;;;4.50;;
35324;SDS011;35135;47.510;19.036;2023-06-01T00:42:25;7.07;;;4.70;;
35324;SDS011;35135;47.510;19.036;2023-06-01T00:44:51;5.63;;;3.72;;
35324;SDS011;35135;47.510;19.036;2023-06-01T00:47:18;7.07;;;4.63;;
35324;SDS011;35135;47.510;19.036;2023-06-01T00:49:45;5.75;;;4.20;;
35324;SDS011;35135;47.510;19.036;2023-06-01T00:52:12;4.70;;;4.00;;
35324;SDS011;35135;47.510;19.036;2023-06-01T00:54:38;5.43;;;4.20;;
35324;SDS011;35135;47.510;19.036;2023-06-01T00:57:05;5.93;;;3.95;;
35324;SDS011;35135;47.510;19.036;2023-06-01T00:59:31;6.68;;;4.07;;
35324;SDS011;35135;47.510;19.036;2023-06-01T01:01:59;6.80;;;4.43;;
35324;SDS011;35135;47.510;19.036;2023-06-01T01:04:24;7.63;;;4.28;;
35324;SDS011;35135;47.510;19.036;2023-06-01T01:07:06;5.97;;;4.47;;
35324;SDS011;35135;47.510;19.036;2023-06-01T01:09:49;4.43;;;3.72;;
35324;SDS011;35135;47.510;19.036;2023-06-01T01:12:34;6.25;;;4.53;;
35324;SDS011;35135;47.510;19.036;2023-06-01T01:15:13;5.80;;;3.83;;
35324;SDS011;35135;47.510;19.036;2023-06-01T01:17:49;6.15;;;3.67;;
35324;SDS011;35135;47.510;19.036;2023-06-01T01:20:21;4.32;;;3.75;;
35324;SDS011;35135;47.510;19.036;2023-06-01T01:25:47;7.20;;;3.75;;
35324;SDS011;35135;47.510;19.036;2023-06-01T01:31:28;6.07;;;4.10;;
35324;SDS011;35135;47.510;19.036;2023-06-01T01:33:57;6.50;;;4.20;;
35324;SDS011;35135;47.510;19.036;2023-06-01T01:36:24;6.28;;;4.45;;
35324;SDS011;35135;47.510;19.036;2023-06-01T01:38:50;5.72;;;4.15;;
35324;SDS011;35135;47.510;19.036;2023-06-01T01:41:16;6.80;;;4.43;;
35324;SDS011;35135;47.510;19.036;2023-06-01T01:43:41;4.43;;;3.53;;
35324;SDS011;35135;47.510;19.036;2023-06-01T01:46:14;6.38;;;3.95;;
35324;SDS011;35135;47.510;19.036;2023-06-01T01:51:36;4.60;;;3.80;;
35324;SDS011;35135;47.510;19.036;2023-06-01T01:54:09;5.53;;;3.78;;
35324;SDS011;35135;47.510;19.036;2023-06-01T01:56:35;4.55;;;3.75;;
35324;SDS011;35135;47.510;19.036;2023-06-01T01:59:02;7.00;;;4.30;;
35324;SDS011;35135;47.510;19.036;2023-06-01T02:01:29;5.03;;;3.88;;
35324;SDS011;35135;47.510;19.036;2023-06-01T02:04:00;5.22;;;4.00;;
35324;SDS011;35135;47.510;19.036;2023-06-01T02:06:26;7.32;;;4.05;;
35324;SDS011;35135;47.510;19.036;2023-06-01T02:08:52;5.55;;;4.38;;
35324;SDS011;35135;47.510;19.036;2023-06-01T02:11:18;5.97;;;4.30;;
35324;SDS011;35135;47.510;19.036;2023-06-01T02:13:43;6.25;;;4.18;;
35324;SDS011;35135;47.510;19.036;2023-06-01T02:16:09;5.85;;;3.88;;
35324;SDS011;35135;47.510;19.036;2023-06-01T02:18:35;4.72;;;3.92;;
35324;SDS011;35135;47.510;19.036;2023-06-01T02:21:07;5.25;;;3.78;;
35324;SDS011;35135;47.510;19.036;2023-06-01T02:23:33;4.43;;;3.80;;
35324;SDS011;35135;47.510;19.036;2023-06-01T02:26:00;6.10;;;4.00;;
35324;SDS011;35135;47.510;19.036;2023-06-01T02:28:25;5.30;;;3.60;;
35324;SDS011;35135;47.510;19.036;2023-06-01T02:30:51;5.40;;;3.78;;
35324;SDS011;35135;47.510;19.036;2023-06-01T02:33:17;5.32;;;3.78;;
35324;SDS011;35135;47.510;19.036;2023-06-01T02:35:42;5.88;;;4.22;;
35324;SDS011;35135;47.510;19.036;2023-06-01T02:38:08;6.93;;;3.80;;
35324;SDS011;35135;47.510;19.036;2023-06-01T02:40:33;4.47;;;3.55;;
35324;SDS011;35135;47.510;19.036;2023-06-01T02:42:59;5.93;;;3.90;;
35324;SDS011;35135;47.510;19.036;2023-06-01T02:45:25;4.55;;;3.95;;
35324;SDS011;35135;47.510;19.036;2023-06-01T02:47:50;4.85;;;3.53;;
35324;SDS011;35135;47.510;19.036;2023-06-01T02:50:16;5.38;;;3.80;;
35324;SDS011;35135;47.510;19.036;2023-06-01T02:52:42;6.80;;;3.67;;
35324;SDS011;35135;47.510;19.036;2023-06-01T02:55:09;4.93;;;3.58;;
35324;SDS011;35135;47.510;19.036;2023-06-01T02:57:34;5.47;;;4.00;;
35324;SDS011;35135;47.510;19.036;2023-06-01T03:00:00;6.35;;;3.90;;
35324;SDS011;35135;47.510;19.036;2023-06-01T03:02:26;6.57;;;4.35;;
35324;SDS011;35135;47.510;19.036;2023-06-01T03:04:52;7.65;;;3.97;;
35324;SDS011;35135;47.510;19.036;2023-06-01T03:07:18;7.00;;;4.10;;
35324;SDS011;35135;47.510;19.036;2023-06-01T03:09:44;5.55;;;4.07;;
35324;SDS011;35135;47.510;19.036;2023-06-01T03:12:09;5.85;;;4.25;;
35324;SDS011;35135;47.510;19.036;2023-06-01T03:14:35;6.10;;;4.38;;
35324;SDS011;35135;47.510;19.036;2023-06-01T03:17:01;5.40;;;4.13;;
35324;SDS011;35135;47.510;19.036;2023-06-01T03:19:26;4.82;;;4.07;;
35324;SDS011;35135;47.510;19.036;2023-06-01T03:21:52;7.10;;;4.03;;
35324;SDS011;35135;47.510;19.036;2023-06-01T03:24:18;12.43;;;4.35;;
35324;SDS011;35135;47.510;19.036;2023-06-01T03:26:43;5.38;;;4.05;;
35324;SDS011;35135;47.510;19.036;2023-06-01T03:29:09;5.53;;;3.90;;
35324;SDS011;35135;47.510;19.036;2023-06-01T03:31:35;6.55;;;3.90;;
35324;SDS011;35135;47.510;19.036;2023-06-01T03:34:01;4.93;;;4.20;;
35324;SDS011;35135;47.510;19.036;2023-06-01T03:36:27;5.68;;;4.38;;
35324;SDS011;35135;47.510;19.036;2023-06-01T03:38:53;6.63;;;4.38;;
35324;SDS011;35135;47.510;19.036;2023-06-01T03:41:19;6.65;;;4.43;;
35324;SDS011;35135;47.510;19.036;2023-06-01T03:43:45;7.35;;;4.05;;
35324;SDS011;35135;47.510;19.036;2023-06-01T03:46:10;6.78;;;4.00;;
35324;SDS011;35135;47.510;19.036;2023-06-01T03:48:36;5.80;;;3.80;;
35324;SDS011;35135;47.510;19.036;2023-06-01T03:51:02;9.48;;;4.10;;
35324;SDS011;35135;47.510;19.036;2023-06-01T03:53:28;5.00;;;4.07;;
35324;SDS011;35135;47.510;19.036;2023-06-01T03:55:56;7.60;;;4.20;;
35324;SDS011;35135;47.510;19.036;2023-06-01T03:58:22;6.75;;;3.78;;
35324;SDS011;35135;47.510;19.036;2023-06-01T04:00:48;7.82;;;3.78;;
35324;SDS011;35135;47.510;19.036;2023-06-01T04:03:14;7.68;;;4.63;;
35324;SDS011;35135;47.510;19.036;2023-06-01T04:05:40;6.18;;;4.15;;
35324;SDS011;35135;47.510;19.036;2023-06-01T04:08:06;5.10;;;3.70;;
35324;SDS011;35135;47.510;19.036;2023-06-01T04:10:33;9.65;;;4.53;;
35324;SDS011;35135;47.510;19.036;2023-06-01T04:12:59;8.90;;;4.28;;
35324;SDS011;35135;47.510;19.036;2023-06-01T04:15:25;7.82;;;4.32;;
35324;SDS011;35135;47.510;19.036;2023-06-01T04:17:50;8.45;;;4.47;;
35324;SDS011;35135;47.510;19.036;2023-06-01T04:20:16;6.72;;;3.88;;
35324;SDS011;35135;47.510;19.036;2023-06-01T04:22:43;6.15;;;3.95;;
35324;SDS011;35135;47.510;19.036;2023-06-01T04:25:11;5.35;;;3.80;;
35324;SDS011;35135;47.510;19.036;2023-06-01T04:27:40;6.70;;;4.25;;
35324;SDS011;35135;47.510;19.036;2023-06-01T04:30:09;6.35;;;4.50;;
35324;SDS011;35135;47.510;19.036;2023-06-01T04:32:36;6.70;;;4.32;;
35324;SDS011;35135;47.510;19.036;2023-06-01T04:35:05;7.53;;;4.13;;
35324;SDS011;35135;47.510;19.036;2023-06-01T04:37:39;7.68;;;4.63;;
35324;SDS011;35135;47.510;19.036;2023-06-01T04:40:06;5.05;;;4.10;;
35324;SDS011;35135;47.510;19.036;2023-06-01T04:42:34;7.72;;;4.78;;
35324;SDS011;35135;47.510;19.036;2023-06-01T04:45:03;8.25;;;4.50;;
35324;SDS011;35135;47.510;19.036;2023-06-01T04:47:33;5.65;;;4.63;;
35324;SDS011;35135;47.510;19.036;2023-06-01T04:50:10;6.38;;;4.53;;
35324;SDS011;35135;47.510;19.036;2023-06-01T04:52:39;8.57;;;4.95;;
35324;SDS011;35135;47.510;19.036;2023-06-01T04:55:07;6.65;;;4.55;;
35324;SDS011;35135;47.510;19.036;2023-06-01T04:57:34;8.40;;;4.25;;
35324;SDS011;35135;47.510;19.036;2023-06-01T05:00:01;5.78;;;4.45;;
35324;SDS011;35135;47.510;19.036;2023-06-01T05:02:33;6.32;;;4.20;;
35324;SDS011;35135;47.510;19.036;2023-06-01T05:04:59;6.68;;;4.07;;
35324;SDS011;35135;47.510;19.036;2023-06-01T05:07:25;8.48;;;4.63;;
35324;SDS011;35135;47.510;19.036;2023-06-01T05:09:50;7.63;;;4.85;;
35324;SDS011;35135;47.510;19.036;2023-06-01T05:12:16;9.07;;;5.20;;
35324;SDS011;35135;47.510;19.036;2023-06-01T05:14:42;7.80;;;4.40;;
35324;SDS011;35135;47.510;19.036;2023-06-01T05:17:07;9.00;;;5.20;;
35324;SDS011;35135;47.510;19.036;2023-06-01T05:19:33;11.32;;;4.88;;
35324;SDS011;35135;47.510;19.036;2023-06-01T05:21:58;9.85;;;4.68;;
35324;SDS011;35135;47.510;19.036;2023-06-01T05:24:24;10.90;;;4.97;;
35324;SDS011;35135;47.510;19.036;2023-06-01T05:26:50;7.75;;;5.13;;
35324;SDS011;35135;47.510;19.036;2023-06-01T05:29:15;9.07;;;4.63;;
35324;SDS011;35135;47.510;19.036;2023-06-01T05:31:41;10.18;;;4.88;;
35324;SDS011;35135;47.510;19.036;2023-06-01T05:34:07;8.80;;;4.78;;
35324;SDS011;35135;47.510;19.036;2023-06-01T05:36:33;10.13;;;4.97;;
35324;SDS011;35135;47.510;19.036;2023-06-01T05:39:00;10.90;;;5.20;;
35324;SDS011;35135;47.510;19.036;2023-06-01T05:41:26;17.27;;;6.03;;
35324;SDS011;35135;47.510;19.036;2023-06-01T05:43:52;8.98;;;4.82;;
35324;SDS011;35135;47.510;19.036;2023-06-01T05:46:18;9.02;;;4.70;;
35324;SDS011;35135;47.510;19.036;2023-06-01T05:48:46;8.57;;;4.63;;
35324;SDS011;35135;47.510;19.036;2023-06-01T05:51:12;11.07;;;4.40;;
35324;SDS011;35135;47.510;19.036;2023-06-01T05:53:38;10.23;;;4.95;;
35324;SDS011;35135;47.510;19.036;2023-06-01T05:56:04;9.50;;;4.50;;
35324;SDS011;35135;47.510;19.036;2023-06-01T05:58:30;7.57;;;4.15;;
35324;SDS011;35135;47.510;19.036;2023-06-01T06:00:55;7.55;;;4.07;;
35324;SDS011;35135;47.510;19.036;2023-06-01T06:03:21;7.93;;;4.40;;
35324;SDS011;35135;47.510;19.036;2023-06-01T06:05:47;6.22;;;3.85;;
35324;SDS011;35135;47.510;19.036;2023-06-01T06:08:13;4.82;;;3.72;;
35324;SDS011;35135;47.510;19.036;2023-06-01T06:10:39;12.50;;;4.60;;
35324;SDS011;35135;47.510;19.036;2023-06-01T06:13:06;8.43;;;4.20;;
35324;SDS011;35135;47.510;19.036;2023-06-01T06:15:32;8.45;;;4.20;;
35324;SDS011;35135;47.510;19.036;2023-06-01T06:17:57;10.18;;;4.90;;
35324;SDS011;35135;47.510;19.036;2023-06-01T06:20:23;15.43;;;6.38;;
35324;SDS011;35135;47.510;19.036;2023-06-01T06:22:52;13.30;;;6.30;;
35324;SDS011;35135;47.510;19.036;2023-06-01T06:25:18;10.43;;;4.97;;
35324;SDS011;35135;47.510;19.036;2023-06-01T06:27:44;9.20;;;5.15;;
35324;SDS011;35135;47.510;19.036;2023-06-01T06:30:10;7.35;;;4.60;;
35324;SDS011;35135;47.510;19.036;2023-06-01T06:32:36;7.82;;;4.15;;
35324;SDS011;35135;47.510;19.036;2023-06-01T06:35:02;8.45;;;3.90;;
35324;SDS011;35135;47.510;19.036;2023-06-01T06:37:28;9.23;;;4.68;;
35324;SDS011;35135;47.510;19.036;2023-06-01T06:39:55;7.72;;;4.32;;
35324;SDS011;35135;47.510;19.036;2023-06-01T06:42:20;6.72;;;4.45;;
35324;SDS011;35135;47.510;19.036;2023-06-01T06:44:46;5.97;;;4.10;;
35324;SDS011;35135;47.510;19.036;2023-06-01T06:47:12;6.07;;;4.18;;
35324;SDS011;35135;47.510;19.036;2023-06-01T06:49:40;6.18;;;3.85;;
35324;SDS011;35135;47.510;19.036;2023-06-01T06:52:08;6.00;;;3.97;;
35324;SDS011;35135;47.510;19.036;2023-06-01T06:54:34;6.57;;;3.78;;
35324;SDS011;35135;47.510;19.036;2023-06-01T06:57:00;7.15;;;3.88;;
35324;SDS011;35135;47.510;19.036;2023-06-01T06:59:28;7.60;;;4.32;;
35324;SDS011;35135;47.510;19.036;2023-06-01T07:01:53;5.68;;;3.97;;
35324;SDS011;35135;47.510;19.036;2023-06-01T07:04:19;6.43;;;4.07;;
35324;SDS011;35135;47.510;19.036;2023-06-01T07:06:45;7.03;;;3.65;;
35324;SDS011;35135;47.510;19.036;2023-06-01T07:09:11;7.50;;;3.75;;
35324;SDS011;35135;47.510;19.036;2023-06-01T07:11:37;7.32;;;3.70;;
35324;SDS011;35135;47.510;19.036;2023-06-01T07:14:02;10.35;;;3.70;;
35324;SDS011;35135;47.510;19.036;2023-06-01T07:16:28;5.30;;;3.50;;
35324;SDS011;35135;47.510;19.036;2023-06-01T07:18:54;6.72;;;3.80;;
35324;SDS011;35135;47.510;19.036;2023-06-01T07:21:21;6.50;;;3.55;;
35324;SDS011;35135;47.510;19.036;2023-06-01T07:23:47;4.30;;;3.35;;
35324;SDS011;35135;47.510;19.036;2023-06-01T07:26:12;7.80;;;3.90;;
35324;SDS011;35135;47.510;19.036;2023-06-01T07:28:38;4.82;;;3.70;;
35324;SDS011;35135;47.510;19.036;2023-06-01T07:31:07;6.45;;;3.22;;
35324;SDS011;35135;47.510;19.036;2023-06-01T07:33:33;6.13;;;3.22;;
35324;SDS011;35135;47.510;19.036;2023-06-01T07:36:00;4.55;;;3.38;;
35324;SDS011;35135;47.510;19.036;2023-06-01T07:38:27;7.45;;;3.97;;
35324;SDS011;35135;47.510;19.036;2023-06-01T07:40:52;6.63;;;3.38;;
35324;SDS011;35135;47.510;19.036;2023-06-01T07:43:18;9.63;;;4.22;;
35324;SDS011;35135;47.510;19.036;2023-06-01T07:45:44;6.80;;;3.20;;
35324;SDS011;35135;47.510;19.036;2023-06-01T07:48:09;7.50;;;3.85;;
35324;SDS011;35135;47.510;19.036;2023-06-01T07:50:35;10.30;;;3.22;;
35324;SDS011;35135;47.510;19.036;2023-06-01T07:53:01;8.55;;;4.03;;
35324;SDS011;35135;47.510;19.036;2023-06-01T07:55:27;9.65;;;3.45;;
35324;SDS011;35135;47.510;19.036;2023-06-01T07:57:53;9.60;;;3.42;;
35324;SDS011;35135;47.510;19.036;2023-06-01T08:00:19;17.27;;;4.07;;
35324;SDS011;35135;47.510;19.036;2023-06-01T08:02:45;13.38;;;4.28;;
35324;SDS011;35135;47.510;19.036;2023-06-01T08:05:11;7.50;;;3.63;;
35324;SDS011;35135;47.510;19.036;2023-06-01T08:07:40;9.77;;;3.90;;
35324;SDS011;35135;47.510;19.036;2023-06-01T08:10:07;8.50;;;3.80;;
35324;SDS011;35135;47.510;19.036;2023-06-01T08:12:33;8.23;;;4.15;;
35324;SDS011;35135;47.510;19.036;2023-06-01T08:15:00;10.00;;;4.07;;
35324;SDS011;35135;47.510;19.036;2023-06-01T08:17:28;8.73;;;3.80;;
35324;SDS011;35135;47.510;19.036;2023-06-01T08:19:54;9.40;;;3.35;;
35324;SDS011;35135;47.510;19.036;2023-06-01T08:22:22;5.32;;;3.53;;
35324;SDS011;35135;47.510;19.036;2023-06-01T08:24:49;9.73;;;3.80;;
35324;SDS011;35135;47.510;19.036;2023-06-01T08:27:20;9.63;;;4.55;;
35324;SDS011;35135;47.510;19.036;2023-06-01T08:29:47;8.30;;;3.70;;
35324;SDS011;35135;47.510;19.036;2023-06-01T08:32:14;13.75;;;4.28;;
35324;SDS011;35135;47.510;19.036;2023-06-01T08:34:42;7.93;;;4.00;;
35324;SDS011;35135;47.510;19.036;2023-06-01T08:37:09;12.20;;;4.75;;
35324;SDS011;35135;47.510;19.036;2023-06-01T08:39:35;7.65;;;4.80;;
35324;SDS011;35135;47.510;19.036;2023-06-01T08:44:38;8.23;;;4.88;;
35324;SDS011;35135;47.510;19.036;2023-06-01T08:47:06;8.35;;;4.60;;
35324;SDS011;35135;47.510;19.036;2023-06-01T08:49:33;10.48;;;4.78;;
35324;SDS011;35135;47.510;19.036;2023-06-01T08:52:07;7.05;;;4.53;;
35324;SDS011;35135;47.510;19.036;2023-06-01T08:54:37;10.40;;;5.05;;
35324;SDS011;35135;47.510;19.036;2023-06-01T08:57:04;9.00;;;5.18;;
35324;SDS011;35135;47.510;19.036;2023-06-01T08:59:33;9.35;;;5.68;;
35324;SDS011;35135;47.510;19.036;2023-06-01T09:02:00;7.00;;;4.20;;
35324;SDS011;35135;47.510;19.036;2023-06-01T09:04:27;10.55;;;5.38;;
35324;SDS011;35135;47.510;19.036;2023-06-01T09:06:55;8.05;;;4.90;;
35324;SDS011;35135;47.510;19.036;2023-06-01T09:09:21;7.43;;;5.40;;
35324;SDS011;35135;47.510;19.036;2023-06-01T09:11:47;10.45;;;5.00;;
35324;SDS011;35135;47.510;19.036;2023-06-01T09:14:23;11.32;;;6.63;;
35324;SDS011;35135;47.510;19.036;2023-06-01T09:16:49;11.70;;;5.63;;
35324;SDS011;35135;47.510;19.036;2023-06-01T09:19:17;9.60;;;5.40;;
35324;SDS011;35135;47.510;19.036;2023-06-01T09:21:56;7.80;;;5.72;;
35324;SDS011;35135;47.510;19.036;2023-06-01T09:24:22;8.52;;;5.13;;
35324;SDS011;35135;47.510;19.036;2023-06-01T09:26:48;8.05;;;5.38;;
35324;SDS011;35135;47.510;19.036;2023-06-01T09:29:14;7.40;;;5.72;;
35324;SDS011;35135;47.510;19.036;2023-06-01T09:31:45;11.73;;;6.53;;
35324;SDS011;35135;47.510;19.036;2023-06-01T09:34:12;10.18;;;6.00;;
35324;SDS011;35135;47.510;19.036;2023-06-01T09:36:44;10.35;;;6.03;;
35324;SDS011;35135;47.510;19.036;2023-06-01T09:39:11;10.95;;;5.70;;
35324;SDS011;35135;47.510;19.036;2023-06-01T09:44:11;8.73;;;5.10;;
35324;SDS011;35135;47.510;19.036;2023-06-01T09:46:47;7.43;;;4.78;;
35324;SDS011;35135;47.510;19.036;2023-06-01T09:49:17;8.65;;;5.57;;
35324;SDS011;35135;47.510;19.036;2023-06-01T09:51:47;7.47;;;5.65;;
35324;SDS011;35135;47.510;19.036;2023-06-01T09:54:24;7.07;;;5.70;;
35324;SDS011;35135;47.510;19.036;2023-06-01T09:56:54;9.57;;;5.68;;
35324;SDS011;35135;47.510;19.036;2023-06-01T09:59:20;8.57;;;5.55;;
35324;SDS011;35135;47.510;19.036;2023-06-01T10:01:53;8.68;;;4.95;;
35324;SDS011;35135;47.510;19.036;2023-06-01T10:04:21;9.55;;;5.55;;
35324;SDS011;35135;47.510;19.036;2023-06-01T10:06:48;6.00;;;4.80;;
35324;SDS011;35135;47.510;19.036;2023-06-01T10:09:16;10.57;;;5.82;;
35324;SDS011;35135;47.510;19.036;2023-06-01T10:11:45;9.15;;;5.50;;
35324;SDS011;35135;47.510;19.036;2023-06-01T10:14:12;8.57;;;5.13;;
35324;SDS011;35135;47.510;19.036;2023-06-01T10:16:38;7.75;;;5.43;;
35324;SDS011;35135;47.510;19.036;2023-06-01T10:19:06;6.15;;;4.72;;
35324;SDS011;35135;47.510;19.036;2023-06-01T10:21:33;7.03;;;4.82;;
35324;SDS011;35135;47.510;19.036;2023-06-01T10:23:59;9.40;;;5.10;;
35324;SDS011;35135;47.510;19.036;2023-06-01T10:26:25;12.60;;;4.72;;
35324;SDS011;35135;47.510;19.036;2023-06-01T10:28:53;8.27;;;5.20;;
35324;SDS011;35135;47.510;19.036;2023-06-01T10:34:02;7.60;;;4.78;;
35324;SDS011;35135;47.510;19.036;2023-06-01T10:37:28;8.68;;;5.18;;
35324;SDS011;35135;47.510;19.036;2023-06-01T10:39:29;7.35;;;5.25;;
35324;SDS011;35135;47.510;19.036;2023-06-01T10:42:41;7.72;;;5.47;;
35324;SDS011;35135;47.510;19.036;2023-06-01T10:54:53;7.78;;;5.15;;
35324;SDS011;35135;47.510;19.036;2023-06-01T11:00:28;6.47;;;4.82;;
35324;SDS011;35135;47.510;19.036;2023-06-01T11:02:59;7.28;;;4.80;;
35324;SDS011;35135;47.510;19.036;2023-06-01T11:06:03;6.68;;;4.85;;
35324;SDS011;35135;47.510;19.036;2023-06-01T11:13:17;10.75;;;4.90;;
35324;SDS011;35135;47.510;19.036;2023-06-01T11:21:23;10.75;;;4.82;;
35324;SDS011;35135;47.510;19.036;2023-06-01T11:23:59;10.15;;;5.50;;
35324;SDS011;35135;47.510;19.036;2023-06-01T11:26:30;8.73;;;5.68;;
35324;SDS011;35135;47.510;19.036;2023-06-01T11:29:11;7.93;;;5.22;;
35324;SDS011;35135;47.510;19.036;2023-06-01T11:34:08;6.80;;;5.03;;
35324;SDS011;35135;47.510;19.036;2023-06-01T11:36:36;6.80;;;4.93;;
35324;SDS011;35135;47.510;19.036;2023-06-01T11:39:03;6.90;;;5.28;;
35324;SDS011;35135;47.510;19.036;2023-06-01T11:41:32;9.35;;;4.90;;
35324;SDS011;35135;47.510;19.036;2023-06-01T11:43:58;8.30;;;5.45;;
35324;SDS011;35135;47.510;19.036;2023-06-01T11:46:24;7.65;;;6.00;;
35324;SDS011;35135;47.510;19.036;2023-06-01T11:49:25;6.35;;;5.50;;
35324;SDS011;35135;47.510;19.036;2023-06-01T11:51:43;8.68;;;5.90;;
35324;SDS011;35135;47.510;19.036;2023-06-01T11:54:10;11.10;;;6.22;;
35324;SDS011;35135;47.510;19.036;2023-06-01T11:56:36;9.32;;;5.78;;
35324;SDS011;35135;47.510;19.036;2023-06-01T11:59:04;6.93;;;5.47;;
35324;SDS011;35135;47.510;19.036;2023-06-01T12:01:44;8.75;;;5.90;;
35324;SDS011;35135;47.510;19.036;2023-06-01T12:04:14;9.65;;;6.10;;
35324;SDS011;35135;47.510;19.036;2023-06-01T12:06:41;8.60;;;5.93;;
35324;SDS011;35135;47.510;19.036;2023-06-01T12:09:08;12.23;;;6.30;;
35324;SDS011;35135;47.510;19.036;2023-06-01T12:11:34;14.98;;;6.38;;
35324;SDS011;35135;47.510;19.036;2023-06-01T12:14:01;13.48;;;5.93;;
35324;SDS011;35135;47.510;19.036;2023-06-01T12:19:26;11.63;;;5.50;;
35324;SDS011;35135;47.510;19.036;2023-06-01T12:21:53;13.18;;;5.80;;
35324;SDS011;35135;47.510;19.036;2023-06-01T12:24:28;11.52;;;6.47;;
35324;SDS011;35135;47.510;19.036;2023-06-01T12:27:00;9.68;;;5.68;;
35324;SDS011;35135;47.510;19.036;2023-06-01T12:29:37;8.15;;;5.53;;
35324;SDS011;35135;47.510;19.036;2023-06-01T12:32:04;9.95;;;5.90;;
35324;SDS011;35135;47.510;19.036;2023-06-01T12:34:30;7.68;;;5.90;;
35324;SDS011;35135;47.510;19.036;2023-06-01T12:36:56;7.05;;;5.47;;
35324;SDS011;35135;47.510;19.036;2023-06-01T12:39:31;7.75;;;5.47;;
35324;SDS011;35135;47.510;19.036;2023-06-01T12:42:02;6.07;;;5.13;;
35324;SDS011;35135;47.510;19.036;2023-06-01T12:44:30;7.75;;;5.72;;
35324;SDS011;35135;47.510;19.036;2023-06-01T12:46:57;11.20;;;5.88;;
35324;SDS011;35135;47.510;19.036;2023-06-01T12:49:26;8.05;;;5.63;;
35324;SDS011;35135;47.510;19.036;2023-06-01T12:51:52;7.35;;;5.57;;
35324;SDS011;35135;47.510;19.036;2023-06-01T12:54:18;6.75;;;5.70;;
35324;SDS011;35135;47.510;19.036;2023-06-01T12:56:47;6.50;;;5.22;;
35324;SDS011;35135;47.510;19.036;2023-06-01T12:59:13;5.60;;;4.85;;
35324;SDS011;35135;47.510;19.036;2023-06-01T13:01:39;6.15;;;5.35;;
35324;SDS011;35135;47.510;19.036;2023-06-01T13:04:05;7.88;;;5.70;;
35324;SDS011;35135;47.510;19.036;2023-06-01T13:06:32;7.18;;;5.82;;
35324;SDS011;35135;47.510;19.036;2023-06-01T13:08:59;9.95;;;5.38;;
35324;SDS011;35135;47.510;19.036;2023-06-01T13:11:26;6.88;;;5.07;;
35324;SDS011;35135;47.510;19.036;2023-06-01T13:13:52;7.53;;;6.05;;
35324;SDS011;35135;47.510;19.036;2023-06-01T13:16:18;7.65;;;5.40;;
35324;SDS011;35135;47.510;19.036;2023-06-01T13:18:44;6.25;;;5.50;;
35324;SDS011;35135;47.510;19.036;2023-06-01T13:21:13;8.98;;;6.13;;
35324;SDS011;35135;47.510;19.036;2023-06-01T13:23:40;6.63;;;5.30;;
35324;SDS011;35135;47.510;19.036;2023-06-01T13:26:06;10.02;;;5.72;;
35324;SDS011;35135;47.510;19.036;2023-06-01T13:28:33;6.63;;;5.90;;
35324;SDS011;35135;47.510;19.036;2023-06-01T13:30:59;6.82;;;5.80;;
35324;SDS011;35135;47.510;19.036;2023-06-01T13:33:24;6.07;;;5.35;;
35324;SDS011;35135;47.510;19.036;2023-06-01T13:35:50;6.13;;;5.30;;
35324;SDS011;35135;47.510;19.036;2023-06-01T13:38:16;7.93;;;5.47;;
35324;SDS011;35135;47.510;19.036;2023-06-01T13:40:42;6.65;;;5.45;;
35324;SDS011;35135;47.510;19.036;2023-06-01T13:43:07;6.80;;;5.38;;
35324;SDS011;35135;47.510;19.036;2023-06-01T13:45:33;7.28;;;5.40;;
35324;SDS011;35135;47.510;19.036;2023-06-01T13:47:59;7.22;;;5.25;;
35324;SDS011;35135;47.510;19.036;2023-06-01T13:50:25;7.85;;;5.32;;
35324;SDS011;35135;47.510;19.036;2023-06-01T13:52:51;6.38;;;5.28;;
35324;SDS011;35135;47.510;19.036;2023-06-01T13:55:20;8.82;;;5.22;;
35324;SDS011;35135;47.510;19.036;2023-06-01T13:57:45;8.23;;;5.57;;
35324;SDS011;35135;47.510;19.036;2023-06-01T14:00:12;7.57;;;5.60;;
35324;SDS011;35135;47.510;19.036;2023-06-01T14:02:39;6.95;;;5.60;;
35324;SDS011;35135;47.510;19.036;2023-06-01T14:05:04;7.03;;;5.60;;
35324;SDS011;35135;47.510;19.036;2023-06-01T14:07:31;8.88;;;5.38;;
35324;SDS011;35135;47.510;19.036;2023-06-01T14:09:56;6.40;;;5.68;;
35324;SDS011;35135;47.510;19.036;2023-06-01T14:12:22;7.43;;;5.47;;
35324;SDS011;35135;47.510;19.036;2023-06-01T14:14:48;6.40;;;5.20;;
35324;SDS011;35135;47.510;19.036;2023-06-01T14:17:14;7.00;;;5.32;;
35324;SDS011;35135;47.510;19.036;2023-06-01T14:19:39;9.20;;;5.55;;
35324;SDS011;35135;47.510;19.036;2023-06-01T14:22:05;7.18;;;5.45;;
35324;SDS011;35135;47.510;19.036;2023-06-01T14:24:31;10.07;;;5.35;;
35324;SDS011;35135;47.510;19.036;2023-06-01T14:26:57;7.75;;;5.47;;
35324;SDS011;35135;47.510;19.036;2023-06-01T14:29:23;6.60;;;4.85;;
35324;SDS011;35135;47.510;19.036;2023-06-01T14:31:48;6.13;;;5.15;;
35324;SDS011;35135;47.510;19.036;2023-06-01T14:34:14;7.97;;;5.45;;
35324;SDS011;35135;47.510;19.036;2023-06-01T14:36:40;7.50;;;5.20;;
35324;SDS011;35135;47.510;19.036;2023-06-01T14:39:06;6.63;;;4.88;;
35324;SDS011;35135;47.510;19.036;2023-06-01T14:41:32;8.18;;;5.25;;
35324;SDS011;35135;47.510;19.036;2023-06-01T14:43:58;5.68;;;5.10;;
35324;SDS011;35135;47.510;19.036;2023-06-01T14:46:23;6.55;;;4.97;;
35324;SDS011;35135;47.510;19.036;2023-06-01T14:48:49;7.60;;;5.03;;
35324;SDS011;35135;47.510;19.036;2023-06-01T14:51:15;7.30;;;5.07;;
35324;SDS011;35135;47.510;19.036;2023-06-01T14:53:40;8.43;;;5.47;;
35324;SDS011;35135;47.510;19.036;2023-06-01T14:56:06;6.75;;;5.00;;
35324;SDS011;35135;47.510;19.036;2023-06-01T14:58:32;5.93;;;5.32;;
35324;SDS011;35135;47.510;19.036;2023-06-01T15:00:57;6.85;;;5.22;;
35324;SDS011;35135;47.510;19.036;2023-06-01T15:03:23;7.20;;;5.20;;
35324;SDS011;35135;47.510;19.036;2023-06-01T15:05:49;6.90;;;5.30;;
35324;SDS011;35135;47.510;19.036;2023-06-01T15:08:16;7.18;;;5.22;;
35324;SDS011;35135;47.510;19.036;2023-06-01T15:10:44;5.35;;;4.82;;
35324;SDS011;35135;47.510;19.036;2023-06-01T15:13:10;6.35;;;4.63;;
35324;SDS011;35135;47.510;19.036;2023-06-01T15:15:38;5.82;;;4.90;;
35324;SDS011;35135;47.510;19.036;2023-06-01T15:18:04;7.22;;;5.63;;
35324;SDS011;35135;47.510;19.036;2023-06-01T15:20:30;5.85;;;4.90;;